createdAt,value
2022-12-17T00:00:08.829Z,76.97
2022-12-17T00:03:30.415Z,69.27
2022-12-17T00:06:50.755Z,65.40
2022-12-17T00:10:10.851Z,85.40
2022-12-17T00:13:40.970Z,87.20
2022-12-17T00:17:01.607Z,81.23
2022-12-17T00:20:22.198Z,68.43
2022-12-17T00:23:42.356Z,85.43
2022-12-17T00:27:02.755Z,77.67
2022-12-17T00:30:23.631Z,74.10
2022-12-17T00:33:44.511Z,94.07
2022-12-17T00:37:04.740Z,80.50
2022-12-17T00:40:26.006Z,90.67
2022-12-17T00:43:46.241Z,92.53
2022-12-17T00:47:06.661Z,81.07
2022-12-17T00:50:27.646Z,73.60
2022-12-17T00:53:47.891Z,84.23
2022-12-17T00:57:08.101Z,85.13
2022-12-17T01:00:28.868Z,94.97
2022-12-17T01:03:49.236Z,92.17
2022-12-17T01:07:09.347Z,85.83
2022-12-17T01:10:30.174Z,100.70
2022-12-17T01:13:51.335Z,94.13
2022-12-17T01:17:12.190Z,75.67
2022-12-17T01:20:32.702Z,95.20
2022-12-17T01:23:52.909Z,94.93
2022-12-17T01:27:12.935Z,105.10
2022-12-17T01:30:33.300Z,90.27
2022-12-17T01:33:53.520Z,97.40
2022-12-17T01:37:13.795Z,88.37
2022-12-17T01:40:34.907Z,96.57
2022-12-17T01:43:57.695Z,76.37
2022-12-17T01:47:18.025Z,86.37
2022-12-17T01:50:42.348Z,93.30
2022-12-17T01:54:09.244Z,71.77
2022-12-17T01:57:29.689Z,85.33
2022-12-17T02:00:49.930Z,74.43
2022-12-17T02:04:10.167Z,70.27
2022-12-17T02:07:45.268Z,76.33
2022-12-17T02:11:23.935Z,66.97
2022-12-17T02:14:51.479Z,53.00
2022-12-17T02:18:16.370Z,55.10
2022-12-17T02:21:39.245Z,55.60
2022-12-17T02:25:16.855Z,55.20
2022-12-17T02:28:39.257Z,55.70
2022-12-17T02:32:03.042Z,53.00
2022-12-17T02:35:31.345Z,58.13
2022-12-17T02:38:52.167Z,49.67
2022-12-17T02:42:15.403Z,54.23
2022-12-17T02:45:36.804Z,46.93
2022-12-17T02:48:57.231Z,52.33
2022-12-17T02:52:17.470Z,64.50
2022-12-17T02:55:38.038Z,61.30
2022-12-17T02:59:00.072Z,52.10
2022-12-17T03:02:20.710Z,49.10
2022-12-17T03:05:45.615Z,48.73
2022-12-17T03:09:06.062Z,43.00
2022-12-17T03:12:26.322Z,53.77
2022-12-17T03:15:46.762Z,66.10
2022-12-17T03:19:08.657Z,56.47
2022-12-17T03:22:29.167Z,52.60
2022-12-17T03:25:49.807Z,45.47
2022-12-17T03:29:10.228Z,47.30
2022-12-17T03:32:30.571Z,49.67
2022-12-17T03:35:50.827Z,50.83
2022-12-17T03:39:21.884Z,61.13
2022-12-17T03:42:42.379Z,54.73
2022-12-17T03:46:10.982Z,59.13
2022-12-17T03:49:31.338Z,43.70
2022-12-17T03:53:02.133Z,53.07
2022-12-17T03:56:22.599Z,46.80
2022-12-17T03:59:42.997Z,50.90
2022-12-17T04:03:03.719Z,52.97
2022-12-17T04:06:23.892Z,54.23
2022-12-17T04:09:44.136Z,50.30
2022-12-17T04:13:04.624Z,45.33
2022-12-17T04:16:24.883Z,41.13
2022-12-17T04:19:45.328Z,48.20
2022-12-17T04:23:05.880Z,40.67
2022-12-17T04:26:26.904Z,47.87
2022-12-17T04:29:47.315Z,49.63
2022-12-17T04:33:07.684Z,50.87
2022-12-17T04:36:28.202Z,50.10
2022-12-17T04:39:48.658Z,60.73
2022-12-17T04:43:09.141Z,53.83
2022-12-17T04:46:29.675Z,51.83
2022-12-17T04:49:50.067Z,46.30
2022-12-17T04:53:21.817Z,56.00
2022-12-17T04:56:42.328Z,48.27
2022-12-17T05:00:02.632Z,47.07
2022-12-17T05:03:24.694Z,46.87
2022-12-17T05:07:01.666Z,49.37
2022-12-17T05:10:22.495Z,57.63
2022-12-17T05:13:43.051Z,57.83
2022-12-17T05:17:03.517Z,47.83
2022-12-17T05:20:24.608Z,39.37
2022-12-17T05:23:45.082Z,46.90
2022-12-17T05:27:05.412Z,46.33
2022-12-17T05:30:26.964Z,48.77
2022-12-17T05:33:47.208Z,46.27
2022-12-17T05:37:07.580Z,44.57
2022-12-17T05:40:28.601Z,52.67
2022-12-17T05:43:49.030Z,47.27
2022-12-17T05:47:09.411Z,60.60
2022-12-17T05:50:29.738Z,44.50
2022-12-17T05:53:50.396Z,47.63
2022-12-17T05:57:11.410Z,42.10
2022-12-17T06:00:32.066Z,52.27
2022-12-17T06:03:52.549Z,50.60
2022-12-17T06:07:12.588Z,51.33
2022-12-17T06:10:32.912Z,54.80
2022-12-17T06:13:53.115Z,47.30
2022-12-17T06:17:14.086Z,47.07
2022-12-17T06:20:51.238Z,42.53
2022-12-17T06:24:11.866Z,40.60
2022-12-17T06:27:32.172Z,49.80
2022-12-17T06:30:52.603Z,38.47
2022-12-17T06:34:13.061Z,50.50
2022-12-17T06:37:33.550Z,48.13
2022-12-17T06:40:54.007Z,50.93
2022-12-17T06:44:14.365Z,37.47
2022-12-17T06:47:34.765Z,54.23
2022-12-17T06:50:55.125Z,46.00
2022-12-17T06:54:15.722Z,40.13
2022-12-17T06:57:40.511Z,44.77
2022-12-17T07:01:02.047Z,41.93
2022-12-17T07:04:23.455Z,49.57
2022-12-17T07:07:43.917Z,50.50
2022-12-17T07:11:04.472Z,30.47
2022-12-17T07:14:24.945Z,45.97
2022-12-17T07:17:45.315Z,56.97
2022-12-17T07:21:06.379Z,34.87
2022-12-17T07:24:27.114Z,37.73
2022-12-17T07:27:47.536Z,53.63
2022-12-17T07:31:07.997Z,41.43
2022-12-17T07:34:28.186Z,37.40
2022-12-17T07:37:48.727Z,50.07
2022-12-17T07:41:09.136Z,40.63
2022-12-17T07:44:29.645Z,42.93
2022-12-17T07:47:50.017Z,45.03
2022-12-17T07:51:10.663Z,37.87
2022-12-17T07:54:31.073Z,34.10
2022-12-17T07:57:51.474Z,32.33
2022-12-17T08:01:12.239Z,33.97
2022-12-17T08:04:32.577Z,34.87
2022-12-17T08:07:52.937Z,49.17
2022-12-17T08:11:13.424Z,34.47
2022-12-17T08:14:33.504Z,33.20
2022-12-17T08:17:53.792Z,32.50
2022-12-17T08:21:14.360Z,40.47
2022-12-17T08:24:34.860Z,38.43
2022-12-17T08:27:55.330Z,43.83
2022-12-17T08:31:18.097Z,45.70
2022-12-17T08:34:38.304Z,39.93
2022-12-17T08:37:58.734Z,34.83
2022-12-17T08:41:19.713Z,39.53
2022-12-17T08:44:40.121Z,33.90
2022-12-17T08:48:04.146Z,35.50
2022-12-17T08:51:24.636Z,36.50
2022-12-17T08:54:45.100Z,42.50
2022-12-17T08:58:16.672Z,47.13
2022-12-17T09:01:37.275Z,38.33
2022-12-17T09:04:57.659Z,32.67
2022-12-17T09:08:22.760Z,36.57
2022-12-17T09:11:43.058Z,32.30
2022-12-17T09:15:03.698Z,39.40
2022-12-17T09:18:24.308Z,31.30
2022-12-17T09:21:47.646Z,43.63
2022-12-17T09:25:08.190Z,31.97
2022-12-17T09:28:28.554Z,31.17
2022-12-17T09:31:50.419Z,41.40
2022-12-17T09:35:10.918Z,31.13
2022-12-17T09:38:32.806Z,34.67
2022-12-17T09:42:22.649Z,32.63
2022-12-17T09:45:54.354Z,34.27
2022-12-17T09:49:30.566Z,34.50
2022-12-17T09:52:55.601Z,37.37
2022-12-17T09:56:16.657Z,36.80
2022-12-17T09:59:45.694Z,43.20
2022-12-17T10:03:16.967Z,44.20
2022-12-17T10:06:41.018Z,35.87
2022-12-17T10:10:01.526Z,37.40
2022-12-17T10:13:30.585Z,47.40
2022-12-17T10:17:05.913Z,28.60
2022-12-17T10:20:57.779Z,34.83
2022-12-17T10:24:29.211Z,37.30
2022-12-17T10:27:49.488Z,36.10
2022-12-17T10:31:10.325Z,43.17
2022-12-17T10:34:37.105Z,35.03
2022-12-17T10:37:57.543Z,40.43
2022-12-17T10:41:17.959Z,33.27
2022-12-17T10:44:48.077Z,31.40
2022-12-17T10:48:08.336Z,37.47
2022-12-17T10:51:51.245Z,34.90
2022-12-17T10:55:18.267Z,30.40
2022-12-17T10:58:43.629Z,35.77
2022-12-17T11:02:04.257Z,31.73
2022-12-17T11:05:33.194Z,32.57
2022-12-17T11:08:53.879Z,31.20
2022-12-17T11:12:14.391Z,30.17
2022-12-17T11:15:42.756Z,32.50
2022-12-17T11:19:27.563Z,26.10
2022-12-17T11:22:59.501Z,23.33
2022-12-17T11:26:30.936Z,30.63
2022-12-17T11:29:51.982Z,34.30
2022-12-17T11:33:40.620Z,25.07
2022-12-17T11:37:27.784Z,22.30
2022-12-17T11:41:12.821Z,22.93
2022-12-17T11:44:42.406Z,22.97
2022-12-17T11:48:08.017Z,32.77
2022-12-17T11:51:37.366Z,26.70
2022-12-17T11:55:04.846Z,27.43
2022-12-17T11:58:47.027Z,36.57
2022-12-17T12:02:47.060Z,33.43
2022-12-17T12:06:23.783Z,34.93
2022-12-17T12:09:49.815Z,27.37
2022-12-17T12:13:28.894Z,27.43
2022-12-17T12:17:03.911Z,31.20
2022-12-17T12:20:26.967Z,36.97
2022-12-17T12:24:11.602Z,30.00
2022-12-17T12:27:53.491Z,41.23
2022-12-17T12:31:29.908Z,35.57
2022-12-17T12:34:54.241Z,36.97
2022-12-17T12:38:14.756Z,26.60
2022-12-17T12:41:37.816Z,23.73
2022-12-17T12:45:07.453Z,35.97
2022-12-17T12:48:48.374Z,25.33
2022-12-17T12:52:11.063Z,30.00
2022-12-17T12:55:51.554Z,29.23
2022-12-17T12:59:11.887Z,32.57
2022-12-17T13:02:50.223Z,42.73
2022-12-17T13:05:51.931Z,33.43
2022-12-17T13:09:05.038Z,22.73
2022-12-17T13:12:22.239Z,29.40
2022-12-17T13:15:36.321Z,33.43
2022-12-17T13:18:41.868Z,25.80
2022-12-17T13:21:43.841Z,25.43
2022-12-17T13:24:48.475Z,22.07
2022-12-17T13:27:50.687Z,27.47
2022-12-17T13:31:01.692Z,32.27
2022-12-17T13:34:25.973Z,28.33
2022-12-17T13:37:38.639Z,25.33
2022-12-17T13:40:55.382Z,21.27
2022-12-17T13:44:01.266Z,37.13
2022-12-17T13:47:02.976Z,25.57
2022-12-17T13:50:36.660Z,27.87
2022-12-17T13:53:38.764Z,32.23
2022-12-17T13:56:40.425Z,50.87
2022-12-17T13:59:53.671Z,34.57
2022-12-17T14:02:55.770Z,27.10
2022-12-17T14:05:58.383Z,34.47
2022-12-17T14:09:00.420Z,29.63
2022-12-17T14:12:24.519Z,29.27
2022-12-17T14:15:29.805Z,27.90
2022-12-17T14:18:31.654Z,31.07
2022-12-17T14:21:33.397Z,33.13
2022-12-17T14:24:35.139Z,29.27
2022-12-17T14:27:37.047Z,26.10
2022-12-17T14:31:17.283Z,21.27
2022-12-17T14:34:11.150Z,32.63
2022-12-17T14:37:18.366Z,31.93
2022-12-17T14:40:20.539Z,32.17
2022-12-17T14:43:28.801Z,29.17
2022-12-17T14:46:32.230Z,30.90
2022-12-17T14:49:34.548Z,28.53
2022-12-17T14:52:44.098Z,27.13
2022-12-17T14:55:57.250Z,28.37
2022-12-17T14:58:58.916Z,34.17
2022-12-17T15:02:13.269Z,27.67
2022-12-17T15:05:16.227Z,24.93
2022-12-17T15:08:18.091Z,30.07
2022-12-17T15:11:21.858Z,29.77
2022-12-17T15:14:23.502Z,60.20
2022-12-17T15:17:25.146Z,31.20
2022-12-17T15:20:27.081Z,27.50
2022-12-17T15:23:29.072Z,22.47
2022-12-17T15:26:30.734Z,23.53
2022-12-17T15:29:34.480Z,45.90
2022-12-17T15:32:36.130Z,23.13
2022-12-17T15:35:38.245Z,27.83
2022-12-17T15:38:40.223Z,29.17
2022-12-17T15:42:00.747Z,27.43
2022-12-17T15:45:02.413Z,34.13
2022-12-17T15:48:04.246Z,26.73
2022-12-17T15:51:05.924Z,24.23
2022-12-17T15:54:07.595Z,29.33
2022-12-17T15:57:12.889Z,24.70
2022-12-17T16:00:18.791Z,20.43
2022-12-17T16:03:20.641Z,21.87
2022-12-17T16:06:22.354Z,30.13
2022-12-17T16:09:25.871Z,30.23
2022-12-17T16:12:27.735Z,33.17
2022-12-17T16:15:30.215Z,33.33
2022-12-17T16:18:32.596Z,32.90
2022-12-17T16:21:34.299Z,33.80
2022-12-17T16:24:36.134Z,37.00
2022-12-17T16:27:37.880Z,33.37
2022-12-17T16:30:42.465Z,49.97
2022-12-17T16:33:45.394Z,39.30
2022-12-17T16:36:47.084Z,57.63
2022-12-17T16:39:53.953Z,44.53
2022-12-17T16:43:01.310Z,44.83
2022-12-17T16:46:06.464Z,46.30
2022-12-17T16:49:14.074Z,48.83
2022-12-17T16:52:15.715Z,50.07
2022-12-17T16:55:17.363Z,55.33
2022-12-17T16:58:19.043Z,48.50
2022-12-17T17:01:22.502Z,56.70
2022-12-17T17:04:24.472Z,61.67
2022-12-17T17:07:26.178Z,51.70
2022-12-17T17:10:28.735Z,58.47
2022-12-17T17:13:30.381Z,56.43
2022-12-17T17:16:34.031Z,60.13
2022-12-17T17:19:35.760Z,52.53
2022-12-17T17:22:37.420Z,63.10
2022-12-17T17:25:57.416Z,62.13
2022-12-17T17:29:00.220Z,58.07
2022-12-17T17:32:10.557Z,57.80
2022-12-17T17:35:12.891Z,64.67
2022-12-17T17:38:14.570Z,74.80
2022-12-17T17:41:18.655Z,54.90
2022-12-17T17:44:20.348Z,54.83
2022-12-17T17:47:22.061Z,50.77
2022-12-17T17:50:23.707Z,60.40
2022-12-17T17:53:25.785Z,57.03
2022-12-17T17:56:31.256Z,63.77
2022-12-17T17:59:34.295Z,76.03
2022-12-17T18:02:36.362Z,63.27
2022-12-17T18:05:41.733Z,62.03
2022-12-17T18:08:44.036Z,68.37
2022-12-17T18:11:45.805Z,59.60
2022-12-17T18:15:12.780Z,61.13
2022-12-17T18:18:14.337Z,71.00
2022-12-17T18:21:19.016Z,63.30
2022-12-17T18:24:22.748Z,63.83
2022-12-17T18:27:24.412Z,55.17
2022-12-17T18:30:26.048Z,55.57
2022-12-17T18:33:27.674Z,63.43
2022-12-17T18:36:38.547Z,52.47
2022-12-17T18:39:40.261Z,49.50
2022-12-17T18:43:00.650Z,54.93
2022-12-17T18:46:04.127Z,52.37
2022-12-17T18:49:11.771Z,47.33
2022-12-17T18:52:16.949Z,49.13
2022-12-17T18:55:19.176Z,49.90
2022-12-17T18:58:20.844Z,48.97
2022-12-17T19:01:25.817Z,52.90
2022-12-17T19:04:27.925Z,56.97
2022-12-17T19:07:29.572Z,67.03
2022-12-17T19:10:31.216Z,60.53
2022-12-17T19:13:33.247Z,52.70
2022-12-17T19:16:34.935Z,57.70
2022-12-17T19:19:36.668Z,68.17
2022-12-17T19:22:38.299Z,53.83
2022-12-17T19:25:39.961Z,57.60
2022-12-17T19:28:43.706Z,60.20
2022-12-17T19:31:46.164Z,58.50
2022-12-17T19:34:47.876Z,65.23
2022-12-17T19:37:50.018Z,66.27
2022-12-17T19:40:52.210Z,49.97
2022-12-17T19:43:57.612Z,53.83
2022-12-17T19:46:59.318Z,49.97
2022-12-17T19:50:00.996Z,60.13
2022-12-17T19:53:02.663Z,69.60
2022-12-17T19:56:22.526Z,75.20
2022-12-17T19:59:24.293Z,54.93
2022-12-17T20:02:32.326Z,57.67
2022-12-17T20:05:34.580Z,63.53
2022-12-17T20:08:37.082Z,54.50
2022-12-17T20:11:39.526Z,50.70
2022-12-17T20:14:41.176Z,62.57
2022-12-17T20:17:42.850Z,41.37
2022-12-17T20:20:44.490Z,61.93
2022-12-17T20:23:47.588Z,62.80
2022-12-17T20:26:51.244Z,63.77
2022-12-17T20:29:53.131Z,52.57
2022-12-17T20:32:54.785Z,57.17
2022-12-17T20:36:02.207Z,64.17
2022-12-17T20:39:04.235Z,59.90
2022-12-17T20:42:05.987Z,47.37
2022-12-17T20:45:08.358Z,51.73
2022-12-17T20:48:09.969Z,50.07
2022-12-17T20:51:18.237Z,49.27
2022-12-17T20:54:19.930Z,50.80
2022-12-17T20:57:21.564Z,52.77
2022-12-17T21:00:23.214Z,42.47
2022-12-17T21:03:24.926Z,51.07
2022-12-17T21:06:29.030Z,51.80
2022-12-17T21:09:30.698Z,45.50
2022-12-17T21:12:52.477Z,52.97
2022-12-17T21:15:54.377Z,39.73
2022-12-17T21:18:58.018Z,40.37
2022-12-17T21:21:59.723Z,51.30
2022-12-17T21:25:01.367Z,28.53
2022-12-17T21:28:03.139Z,63.50
2022-12-17T21:31:05.341Z,62.47
2022-12-17T21:34:10.671Z,37.33
2022-12-17T21:37:13.670Z,42.10
2022-12-17T21:40:15.359Z,36.37
2022-12-17T21:43:17.082Z,38.83
2022-12-17T21:46:18.894Z,35.80
2022-12-17T21:49:20.607Z,35.90
2022-12-17T21:52:22.444Z,29.57
2022-12-17T21:55:24.747Z,39.07
2022-12-17T21:58:26.390Z,45.07
2022-12-17T22:01:31.736Z,39.33
2022-12-17T22:04:33.692Z,40.10
2022-12-17T22:07:38.730Z,39.90
2022-12-17T22:10:49.347Z,33.60
2022-12-17T22:14:13.786Z,31.60
2022-12-17T22:17:18.828Z,43.13
2022-12-17T22:20:20.623Z,32.87
2022-12-17T22:23:22.255Z,27.00
2022-12-17T22:26:24.266Z,33.93
2022-12-17T22:29:46.319Z,33.77
2022-12-17T22:33:00.172Z,25.83
2022-12-17T22:38:47.423Z,33.67
2022-12-17T22:42:19.619Z,31.13
2022-12-17T22:44:43.045Z,33.33
2022-12-17T22:46:27.400Z,30.60
2022-12-17T22:49:29.107Z,26.93
2022-12-17T22:52:30.753Z,22.63
2022-12-17T22:55:33.513Z,25.97
2022-12-17T22:58:38.739Z,21.00
2022-12-17T23:01:40.459Z,28.13
2022-12-17T23:04:42.525Z,31.90
2022-12-17T23:07:44.237Z,25.90
2022-12-17T23:10:45.921Z,30.27
2022-12-17T23:13:47.601Z,25.33
2022-12-17T23:16:49.246Z,27.13
2022-12-17T23:19:50.869Z,18.93
2022-12-17T23:22:52.630Z,25.27
2022-12-17T23:25:54.419Z,27.87
2022-12-17T23:28:58.377Z,20.60
2022-12-17T23:32:00.028Z,28.47
2022-12-17T23:35:01.763Z,28.13
2022-12-17T23:38:03.411Z,29.17
2022-12-17T23:41:11.330Z,31.17
2022-12-17T23:44:13.007Z,23.63
2022-12-17T23:47:14.711Z,25.47
2022-12-17T23:50:17.243Z,22.47
2022-12-17T23:53:18.896Z,21.83
2022-12-17T23:56:23.856Z,24.90
2022-12-17T23:59:25.471Z,24.03
